Create Custom Reports and Graphics: Custom Report

Soquel - CalFire

Current Conditions

7/13/20 3:00 AM (-07:00)
Updated Every 15 Minutes
Temp 63.1 °F   5.6
RH 59 %   26
Dew Pt 48.4 °F   10.6
Wind Spd 0.2 mph
Wind Dir ESE | 102 °
Wind Gust 1.4 mph   1.1
Latest Rain 0.00 In
Daily Rain 0.00 In
Leaf Wet 0.0 mins
Daily Min Temp 62.6 °F   5.2
Daily Max Temp 65.1 °F   4.4

Daily Summary

Last 30 Days

Daily Data | America/Los_Angeles
as of 7/13/20 3:02 AM PDT
Date Daily Max Temp (°F) Daily Min Temp (°F) Daily Rain (In) Seasonal Rainfall (In) Daily Solar Rad (Cal/cm2) Daily ETo (in) Wind Spd (mph) Daily Max Wind (mph) Max Wind Dir (°) Dew Pt (°F) Max RH (%) Min RH (%) Daily Leaf Wet Hrs (hrs) Soil Temp (°F) Soil Moist (%) Fuel Moisture (%) Max Fuel Moisture (%) Min Fuel Moisture (%) Bat Volt Min Day (V)
7/12/20 92.1 64.8 0.00 0.00 740 0.238 1.3 5.9 NNW | 334 48.6 62 24 0.0 71.7 13.2 5 10 0 12.5
7/11/20 94.8 63.9 0.00 0.00 727 0.232 1.5 8.2 SSW | 213 46.5 57 14 0.0 71.5 13.2 5 11 0 12.5
7/10/20 91.6 61.3 0.00 0.00 696 0.220 1.4 7.5 W | 266 49.5 60 27 0.0 71.3 13.2 6 13 0 12.5
7/9/20 84.3 45.8 0.00 0.00 736 0.223 1.0 7.2 WNW | 289 51.0 94 37 8.3 71.2 13.1 10 21 0 12.5
7/8/20 83.5 49.0 0.00 0.00 735 0.222 1.0 5.9 WSW | 242 51.3 89 32 7.5 71.0 13.1 9 19 0 12.5
7/7/20 82.3 47.1 0.00 0.00 739 0.219 1.2 7.5 W | 266 48.8 88 34 8.8 70.9 13.1 9 18 0 12.5
7/6/20 84.6 50.2 0.00 0.00 745 0.223 1.4 11.1 SW | 226 44.6 82 25 0.2 70.7 13.2 7 13 0 12.5
7/5/20 91.6 57.6 0.00 0.00 746 0.235 1.4 8.3 WSW | 246 44.6 65 21 0.0 70.5 13.2 5 11 0 12.5
7/4/20 91.3 55.8 0.00 0.00 737 0.230 1.6 8.6 SSW | 213 42.0 59 15 0.0 70.4 13.2 7 15 0 12.5
7/3/20 80.4 43.0 0.00 0.00 755 0.218 1.2 7.2 WNW | 294 48.2 94 30 8.2 70.3 13.2 12 24 0 12.5
7/2/20 67.1 46.0 0.00 0.00 636 0.167 1.4 9.4 SSW | 197 48.2 94 56 8.6 70.2 13.3 13 20 0 12.6
7/1/20 68.8 46.0 0.00 0.00 722 0.196 1.3 8.2 W | 278 49.3 95 55 11.2 70.0 13.3 12 20 0 12.5
6/30/20 83.8 50.4 0.00 30.84 737 0.224 1.2 6.8 W | 265 48.0 93 26 3.5 69.8 13.3 9 17 0 12.5
6/29/20 73.4 47.7 0.00 30.84 752 0.212 1.5 8.2 W | 262 49.9 94 47 1.5 69.6 13.3 11 20 0 12.6
6/28/20 69.5 48.9 0.00 30.84 694 0.190 1.4 9.2 NW | 324 49.3 95 50 10.1 69.4 13.4 12 20 0 12.5
6/27/20 76.5 52.1 0.00 30.84 739 0.218 1.1 7.5 W | 260 53.7 94 48 11.8 69.1 13.4 11 21 0 12.5
6/26/20 80.1 49.1 0.00 30.84 724 0.217 1.2 8.1 WNW | 300 53.4 95 43 8.4 68.9 13.4 11 22 0 12.5
6/25/20 74.6 49.1 0.00 30.84 751 0.214 1.1 6.9 WSW | 248 51.9 95 50 12.5 68.6 13.4 12 21 0 12.6
6/24/20 78.1 49.6 0.00 30.84 731 0.216 1.0 7.0 WNW | 302 52.9 94 47 12.1 68.3 13.4 12 23 0 12.5
6/23/20 79.3 49.4 0.00 30.84 727 0.217 1.1 6.6 W | 268 53.0 95 44 12.6 68.0 13.4 11 22 0 12.5
6/22/20 78.0 50.4 0.00 30.84 752 0.219 1.0 6.5 WNW | 297 52.9 95 47 13.0 67.7 13.5 11 21 0 12.5
6/21/20 84.3 52.6 0.00 30.84 725 0.222 1.0 8.4 SSW | 210 54.5 93 38 12.1 67.5 13.4 12 25 0 12.5
6/20/20 73.8 47.0 0.00 30.84 721 0.203 1.0 7.8 WSW | 250 51.2 95 52 13.0 67.2 13.4 12 21 0 12.5
6/19/20 76.2 46.4 0.00 30.84 755 0.219 1.0 7.1 NW | 322 49.8 93 46 10.7 67.0 13.4 10 18 0 12.5
6/18/20 79.4 55.3 0.00 30.84 749 0.226 1.4 7.1 WSW | 246 45.3 82 25 0.2 66.7 13.5 6 14 0 12.5
6/17/20 85.3 52.1 0.00 30.84 764 0.228 2.0 15.4 NE | 50 38.1 73 12 0.0 66.5 13.4 7 15 0 12.5
6/16/20 77.1 46.8 0.00 30.84 750 0.214 1.6 10.3 SSW | 212 45.3 89 31 6.9 66.3 13.5 10 20 0 12.5
6/15/20 82.2 51.5 0.00 30.84 653 0.196 1.5 8.7 SW | 225 50.3 81 35 0.0 66.1 13.5 9 17 0 12.5
6/14/20 81.3 49.4 0.00 30.84 729 0.215 1.4 9.7 W | 264 50.5 90 34 4.5 66.0 13.5 9 19 0 12.6
6/13/20 74.1 46.0 0.00 30.84 606 0.165 1.4 8.2 NW | 304 43.5 85 31 0.8 65.8 13.5 11 20 0 12.5
Max 94.8 64.8 0.00 - 764 0.238 2.0 15.4 - 54.5 95 56 13.0 71.7 13.5 13 25 0 12.6
Avg - - - - - - 1.3 - - 48.9 - - - 68.9 13.3 9 18 0 -
Min 67.1 43.0 0.00 - 606 0.165 1.0 5.9 - 38.1 57 12 0.0 65.8 13.1 5 10 0 12.5